sensor_id;sensor_type;location;lat;lon;timestamp;pressure;altitude;pressure_sealevel;temperature;humidity
73106;BME280;61559;50.476;15.588;2024-01-27T00:01:48;98453.77;;;3.08;75.98
73106;BME280;61559;50.476;15.588;2024-01-27T00:04:19;98452.06;;;3.10;76.33
73106;BME280;61559;50.476;15.588;2024-01-27T00:06:51;98449.64;;;3.12;76.26
73106;BME280;61559;50.476;15.588;2024-01-27T00:09:20;98449.79;;;3.12;76.19
73106;BME280;61559;50.476;15.588;2024-01-27T00:11:52;98454.88;;;3.12;75.27
73106;BME280;61559;50.476;15.588;2024-01-27T00:14:23;98454.20;;;3.14;75.30
73106;BME280;61559;50.476;15.588;2024-01-27T00:16:54;98462.59;;;3.18;75.47
73106;BME280;61559;50.476;15.588;2024-01-27T00:19:25;98466.67;;;3.18;75.24
73106;BME280;61559;50.476;15.588;2024-01-27T00:21:55;98478.15;;;3.19;75.46
73106;BME280;61559;50.476;15.588;2024-01-27T00:24:28;98486.88;;;3.18;75.84
73106;BME280;61559;50.476;15.588;2024-01-27T00:26:58;98487.38;;;3.18;75.29
73106;BME280;61559;50.476;15.588;2024-01-27T00:29:29;98486.41;;;3.17;74.28
73106;BME280;61559;50.476;15.588;2024-01-27T00:31:59;98495.70;;;3.19;74.22
73106;BME280;61559;50.476;15.588;2024-01-27T00:34:31;98499.16;;;3.18;74.31
73106;BME280;61559;50.476;15.588;2024-01-27T00:37:02;98493.00;;;3.19;73.63
73106;BME280;61559;50.476;15.588;2024-01-27T00:39:32;98509.46;;;3.20;73.72
73106;BME280;61559;50.476;15.588;2024-01-27T00:42:04;98512.97;;;3.19;73.81
73106;BME280;61559;50.476;15.588;2024-01-27T00:44:35;98520.08;;;3.18;73.81
73106;BME280;61559;50.476;15.588;2024-01-27T00:47:06;98517.17;;;3.18;72.80
73106;BME280;61559;50.476;15.588;2024-01-27T00:49:36;98519.88;;;3.18;72.83
73106;BME280;61559;50.476;15.588;2024-01-27T00:52:07;98520.95;;;3.15;71.83
73106;BME280;61559;50.476;15.588;2024-01-27T00:54:39;98523.51;;;3.15;70.99
73106;BME280;61559;50.476;15.588;2024-01-27T00:57:10;98519.09;;;3.17;70.89
73106;BME280;61559;50.476;15.588;2024-01-27T00:59:40;98519.55;;;3.17;70.61
73106;BME280;61559;50.476;15.588;2024-01-27T01:02:11;98521.91;;;3.15;70.40
73106;BME280;61559;50.476;15.588;2024-01-27T01:04:41;98521.09;;;3.14;70.22
73106;BME280;61559;50.476;15.588;2024-01-27T01:07:13;98517.67;;;3.10;70.06
73106;BME280;61559;50.476;15.588;2024-01-27T01:09:45;98520.40;;;3.09;69.25
73106;BME280;61559;50.476;15.588;2024-01-27T01:12:16;98539.05;;;3.11;69.51
73106;BME280;61559;50.476;15.588;2024-01-27T01:14:48;98534.41;;;3.10;70.11
73106;BME280;61559;50.476;15.588;2024-01-27T01:17:19;98553.11;;;3.08;70.20
73106;BME280;61559;50.476;15.588;2024-01-27T01:19:51;98546.84;;;3.07;70.49
73106;BME280;61559;50.476;15.588;2024-01-27T01:22:21;98553.05;;;3.08;70.03
73106;BME280;61559;50.476;15.588;2024-01-27T01:24:51;98555.19;;;3.07;70.63
73106;BME280;61559;50.476;15.588;2024-01-27T01:27:22;98550.27;;;3.05;70.32
73106;BME280;61559;50.476;15.588;2024-01-27T01:29:51;98547.23;;;3.04;69.79
73106;BME280;61559;50.476;15.588;2024-01-27T01:32:24;98556.13;;;3.02;69.78
73106;BME280;61559;50.476;15.588;2024-01-27T01:34:55;98560.92;;;3.03;69.84
73106;BME280;61559;50.476;15.588;2024-01-27T01:37:26;98557.29;;;3.02;69.29
73106;BME280;61559;50.476;15.588;2024-01-27T01:39:57;98559.09;;;3.03;69.19
73106;BME280;61559;50.476;15.588;2024-01-27T01:42:32;98556.77;;;3.03;69.12
73106;BME280;61559;50.476;15.588;2024-01-27T01:45:04;98547.38;;;3.03;68.11
73106;BME280;61559;50.476;15.588;2024-01-27T01:47:35;98568.88;;;3.04;67.93
73106;BME280;61559;50.476;15.588;2024-01-27T01:50:08;98573.05;;;3.04;68.45
73106;BME280;61559;50.476;15.588;2024-01-27T01:52:40;98577.48;;;3.04;68.44
73106;BME280;61559;50.476;15.588;2024-01-27T01:55:11;98580.48;;;3.04;68.44
73106;BME280;61559;50.476;15.588;2024-01-27T01:57:44;98564.85;;;3.04;68.25
73106;BME280;61559;50.476;15.588;2024-01-27T02:00:16;98570.91;;;3.04;68.48
73106;BME280;61559;50.476;15.588;2024-01-27T02:02:48;98578.80;;;3.04;68.49
73106;BME280;61559;50.476;15.588;2024-01-27T02:05:19;98579.81;;;3.03;68.17
73106;BME280;61559;50.476;15.588;2024-01-27T02:07:50;98579.92;;;3.04;68.48
73106;BME280;61559;50.476;15.588;2024-01-27T02:10:26;98577.84;;;3.04;67.57
73106;BME280;61559;50.476;15.588;2024-01-27T02:12:55;98585.67;;;3.04;67.89
73106;BME280;61559;50.476;15.588;2024-01-27T02:15:27;98573.38;;;3.02;67.83
73106;BME280;61559;50.476;15.588;2024-01-27T02:17:57;98589.95;;;3.01;66.98
73106;BME280;61559;50.476;15.588;2024-01-27T02:20:28;98598.00;;;3.01;67.04
73106;BME280;61559;50.476;15.588;2024-01-27T02:22:58;98600.60;;;3.02;67.11
73106;BME280;61559;50.476;15.588;2024-01-27T02:25:33;98588.36;;;3.00;67.18
73106;BME280;61559;50.476;15.588;2024-01-27T02:28:06;98591.25;;;3.00;67.67
73106;BME280;61559;50.476;15.588;2024-01-27T02:30:37;98595.59;;;3.00;67.87
73106;BME280;61559;50.476;15.588;2024-01-27T02:33:08;98594.61;;;3.00;68.41
73106;BME280;61559;50.476;15.588;2024-01-27T02:35:38;98604.80;;;3.00;68.64
73106;BME280;61559;50.476;15.588;2024-01-27T02:38:09;98601.11;;;2.99;69.11
73106;BME280;61559;50.476;15.588;2024-01-27T02:40:40;98593.90;;;2.97;69.33
73106;BME280;61559;50.476;15.588;2024-01-27T02:43:11;98601.52;;;2.95;69.13
73106;BME280;61559;50.476;15.588;2024-01-27T02:45:43;98596.59;;;2.96;69.61
73106;BME280;61559;50.476;15.588;2024-01-27T02:48:14;98595.51;;;2.95;69.46
73106;BME280;61559;50.476;15.588;2024-01-27T02:50:44;98587.36;;;2.95;69.12
73106;BME280;61559;50.476;15.588;2024-01-27T02:53:14;98580.62;;;2.94;68.98
73106;BME280;61559;50.476;15.588;2024-01-27T02:55:45;98582.48;;;2.91;67.93
73106;BME280;61559;50.476;15.588;2024-01-27T02:58:17;98576.52;;;2.91;68.07
73106;BME280;61559;50.476;15.588;2024-01-27T03:00:47;98590.42;;;2.93;67.21
73106;BME280;61559;50.476;15.588;2024-01-27T03:03:18;98578.37;;;2.93;67.10
73106;BME280;61559;50.476;15.588;2024-01-27T03:05:49;98583.58;;;2.94;67.41
73106;BME280;61559;50.476;15.588;2024-01-27T03:08:21;98582.95;;;2.93;67.02
73106;BME280;61559;50.476;15.588;2024-01-27T03:10:52;98588.12;;;2.94;66.61
73106;BME280;61559;50.476;15.588;2024-01-27T03:13:23;98575.86;;;2.95;66.34
73106;BME280;61559;50.476;15.588;2024-01-27T03:15:55;98591.32;;;2.95;64.73
73106;BME280;61559;50.476;15.588;2024-01-27T03:18:26;98599.45;;;2.97;64.82
73106;BME280;61559;50.476;15.588;2024-01-27T03:20:58;98594.75;;;2.95;65.11
73106;BME280;61559;50.476;15.588;2024-01-27T03:23:30;98593.96;;;2.94;65.27
73106;BME280;61559;50.476;15.588;2024-01-27T03:26:03;98602.83;;;2.95;65.66
73106;BME280;61559;50.476;15.588;2024-01-27T03:28:35;98594.63;;;2.94;66.25
73106;BME280;61559;50.476;15.588;2024-01-27T03:31:06;98602.27;;;2.92;66.69
73106;BME280;61559;50.476;15.588;2024-01-27T03:33:37;98607.16;;;2.90;67.16
73106;BME280;61559;50.476;15.588;2024-01-27T03:36:12;98598.20;;;2.88;67.59
73106;BME280;61559;50.476;15.588;2024-01-27T03:38:43;98607.02;;;2.86;68.06
73106;BME280;61559;50.476;15.588;2024-01-27T03:41:15;98611.25;;;2.85;68.51
73106;BME280;61559;50.476;15.588;2024-01-27T03:43:46;98615.55;;;2.83;68.72
73106;BME280;61559;50.476;15.588;2024-01-27T03:46:17;98609.49;;;2.80;69.21
73106;BME280;61559;50.476;15.588;2024-01-27T03:48:48;98613.54;;;2.75;69.29
73106;BME280;61559;50.476;15.588;2024-01-27T03:51:20;98619.39;;;2.73;68.49
73106;BME280;61559;50.476;15.588;2024-01-27T03:53:51;98618.30;;;2.72;68.93
73106;BME280;61559;50.476;15.588;2024-01-27T03:56:20;98623.71;;;2.70;68.25
73106;BME280;61559;50.476;15.588;2024-01-27T03:58:52;98623.81;;;2.71;68.25
73106;BME280;61559;50.476;15.588;2024-01-27T04:01:24;98618.86;;;2.72;68.65
73106;BME280;61559;50.476;15.588;2024-01-27T04:03:55;98625.66;;;2.71;68.70
73106;BME280;61559;50.476;15.588;2024-01-27T04:06:26;98629.63;;;2.71;68.56
73106;BME280;61559;50.476;15.588;2024-01-27T04:08:56;98631.80;;;2.70;68.42
73106;BME280;61559;50.476;15.588;2024-01-27T04:11:27;98638.59;;;2.69;68.20
73106;BME280;61559;50.476;15.588;2024-01-27T04:13:58;98638.81;;;2.70;67.57
73106;BME280;61559;50.476;15.588;2024-01-27T04:16:31;98641.27;;;2.70;67.45
73106;BME280;61559;50.476;15.588;2024-01-27T04:19:03;98637.07;;;2.71;67.62
73106;BME280;61559;50.476;15.588;2024-01-27T04:21:35;98640.21;;;2.71;66.87
73106;BME280;61559;50.476;15.588;2024-01-27T04:24:07;98650.15;;;2.72;67.44
73106;BME280;61559;50.476;15.588;2024-01-27T04:26:38;98657.13;;;2.72;66.48
73106;BME280;61559;50.476;15.588;2024-01-27T04:29:09;98652.30;;;2.73;66.75
73106;BME280;61559;50.476;15.588;2024-01-27T04:31:44;98657.05;;;2.71;66.67
73106;BME280;61559;50.476;15.588;2024-01-27T04:34:16;98666.30;;;2.71;66.81
73106;BME280;61559;50.476;15.588;2024-01-27T04:36:47;98670.35;;;2.72;67.28
73106;BME280;61559;50.476;15.588;2024-01-27T04:39:19;98670.81;;;2.72;66.71
73106;BME280;61559;50.476;15.588;2024-01-27T04:41:50;98670.95;;;2.74;66.94
73106;BME280;61559;50.476;15.588;2024-01-27T04:44:21;98677.52;;;2.75;67.58
73106;BME280;61559;50.476;15.588;2024-01-27T04:46:51;98680.84;;;2.76;67.46
73106;BME280;61559;50.476;15.588;2024-01-27T04:49:22;98671.94;;;2.75;67.57
73106;BME280;61559;50.476;15.588;2024-01-27T04:51:53;98676.95;;;2.75;67.58
73106;BME280;61559;50.476;15.588;2024-01-27T04:54:24;98680.01;;;2.75;67.12
73106;BME280;61559;50.476;15.588;2024-01-27T04:56:54;98681.89;;;2.74;67.69
73106;BME280;61559;50.476;15.588;2024-01-27T04:59:25;98683.39;;;2.73;67.44
73106;BME280;61559;50.476;15.588;2024-01-27T05:01:56;98675.32;;;2.74;67.67
73106;BME280;61559;50.476;15.588;2024-01-27T05:04:27;98678.43;;;2.75;67.82
73106;BME280;61559;50.476;15.588;2024-01-27T05:06:59;98687.38;;;2.74;67.59
73106;BME280;61559;50.476;15.588;2024-01-27T05:09:33;98687.15;;;2.73;67.75
73106;BME280;61559;50.476;15.588;2024-01-27T05:12:06;98693.53;;;2.71;67.95
73106;BME280;61559;50.476;15.588;2024-01-27T05:14:37;98693.70;;;2.69;68.11
73106;BME280;61559;50.476;15.588;2024-01-27T05:17:08;98694.63;;;2.68;68.10
73106;BME280;61559;50.476;15.588;2024-01-27T05:19:39;98704.18;;;2.64;68.00
73106;BME280;61559;50.476;15.588;2024-01-27T05:22:10;98704.41;;;2.63;68.30
73106;BME280;61559;50.476;15.588;2024-01-27T05:24:45;98697.80;;;2.60;68.54
73106;BME280;61559;50.476;15.588;2024-01-27T05:27:17;98700.48;;;2.58;69.03
73106;BME280;61559;50.476;15.588;2024-01-27T05:29:48;98705.80;;;2.57;69.45
73106;BME280;61559;50.476;15.588;2024-01-27T05:32:19;98714.62;;;2.56;69.53
73106;BME280;61559;50.476;15.588;2024-01-27T05:34:49;98713.98;;;2.54;69.44
73106;BME280;61559;50.476;15.588;2024-01-27T05:37:20;98723.91;;;2.53;69.54
73106;BME280;61559;50.476;15.588;2024-01-27T05:39:52;98723.89;;;2.54;69.74
73106;BME280;61559;50.476;15.588;2024-01-27T05:42:21;98726.79;;;2.54;69.86
73106;BME280;61559;50.476;15.588;2024-01-27T05:44:51;98737.21;;;2.51;69.74
73106;BME280;61559;50.476;15.588;2024-01-27T05:47:22;98743.84;;;2.50;69.96
73106;BME280;61559;50.476;15.588;2024-01-27T05:49:52;98739.95;;;2.51;70.12
73106;BME280;61559;50.476;15.588;2024-01-27T05:52:24;98742.27;;;2.50;70.27
73106;BME280;61559;50.476;15.588;2024-01-27T05:54:56;98733.63;;;2.50;70.29
73106;BME280;61559;50.476;15.588;2024-01-27T05:57:27;98739.40;;;2.49;70.03
73106;BME280;61559;50.476;15.588;2024-01-27T05:59:58;98738.42;;;2.48;69.98
73106;BME280;61559;50.476;15.588;2024-01-27T06:02:34;98735.97;;;2.48;69.84
73106;BME280;61559;50.476;15.588;2024-01-27T06:05:06;98725.27;;;2.47;69.88
73106;BME280;61559;50.476;15.588;2024-01-27T06:07:40;98731.79;;;2.47;70.09
73106;BME280;61559;50.476;15.588;2024-01-27T06:10:11;98735.80;;;2.47;70.15
73106;BME280;61559;50.476;15.588;2024-01-27T06:12:42;98749.36;;;2.47;70.19
73106;BME280;61559;50.476;15.588;2024-01-27T06:15:14;98753.10;;;2.48;70.27
73106;BME280;61559;50.476;15.588;2024-01-27T06:17:46;98763.73;;;2.48;70.12
73106;BME280;61559;50.476;15.588;2024-01-27T06:20:18;98763.05;;;2.49;70.13
73106;BME280;61559;50.476;15.588;2024-01-27T06:22:49;98762.02;;;2.49;70.02
73106;BME280;61559;50.476;15.588;2024-01-27T06:25:22;98768.91;;;2.48;70.32
73106;BME280;61559;50.476;15.588;2024-01-27T06:27:53;98776.70;;;2.48;70.65
73106;BME280;61559;50.476;15.588;2024-01-27T06:30:23;98788.20;;;2.48;70.49
73106;BME280;61559;50.476;15.588;2024-01-27T06:32:54;98795.54;;;2.46;70.33
73106;BME280;61559;50.476;15.588;2024-01-27T06:35:26;98797.48;;;2.47;70.37
73106;BME280;61559;50.476;15.588;2024-01-27T06:37:55;98796.09;;;2.48;70.21
73106;BME280;61559;50.476;15.588;2024-01-27T06:40:27;98795.98;;;2.48;70.07
73106;BME280;61559;50.476;15.588;2024-01-27T06:42:58;98791.81;;;2.48;70.07
73106;BME280;61559;50.476;15.588;2024-01-27T06:45:32;98792.48;;;2.51;70.32
73106;BME280;61559;50.476;15.588;2024-01-27T06:48:03;98796.82;;;2.54;70.41
73106;BME280;61559;50.476;15.588;2024-01-27T06:50:34;98799.25;;;2.53;70.28
73106;BME280;61559;50.476;15.588;2024-01-27T06:53:05;98786.99;;;2.54;70.32
73106;BME280;61559;50.476;15.588;2024-01-27T06:55:37;98787.22;;;2.54;70.43
73106;BME280;61559;50.476;15.588;2024-01-27T06:58:12;98796.29;;;2.55;70.34
73106;BME280;61559;50.476;15.588;2024-01-27T07:00:43;98802.92;;;2.56;69.98
73106;BME280;61559;50.476;15.588;2024-01-27T07:03:15;98804.10;;;2.56;69.95
73106;BME280;61559;50.476;15.588;2024-01-27T07:05:45;98806.03;;;2.57;69.81
73106;BME280;61559;50.476;15.588;2024-01-27T07:08:16;98814.81;;;2.56;70.19
73106;BME280;61559;50.476;15.588;2024-01-27T07:10:47;98821.87;;;2.57;70.12
73106;BME280;61559;50.476;15.588;2024-01-27T07:13:18;98820.26;;;2.58;70.15
73106;BME280;61559;50.476;15.588;2024-01-27T07:15:50;98823.16;;;2.58;70.16
73106;BME280;61559;50.476;15.588;2024-01-27T07:18:19;98829.67;;;2.59;69.68
73106;BME280;61559;50.476;15.588;2024-01-27T07:20:52;98821.60;;;2.57;70.15
73106;BME280;61559;50.476;15.588;2024-01-27T07:23:24;98825.02;;;2.57;70.00
73106;BME280;61559;50.476;15.588;2024-01-27T07:25:56;98829.76;;;2.55;69.89
73106;BME280;61559;50.476;15.588;2024-01-27T07:28:33;98847.73;;;2.57;70.08
73106;BME280;61559;50.476;15.588;2024-01-27T07:31:04;98843.80;;;2.58;70.37
73106;BME280;61559;50.476;15.588;2024-01-27T07:33:35;98849.27;;;2.59;70.30
73106;BME280;61559;50.476;15.588;2024-01-27T07:36:09;98860.88;;;2.60;70.40
73106;BME280;61559;50.476;15.588;2024-01-27T07:38:41;98861.78;;;2.60;70.44
73106;BME280;61559;50.476;15.588;2024-01-27T07:41:12;98860.70;;;2.62;70.26
73106;BME280;61559;50.476;15.588;2024-01-27T07:43:43;98855.83;;;2.63;70.31
73106;BME280;61559;50.476;15.588;2024-01-27T07:46:15;98868.61;;;2.63;70.02
73106;BME280;61559;50.476;15.588;2024-01-27T07:48:44;98865.45;;;2.63;70.43
73106;BME280;61559;50.476;15.588;2024-01-27T07:51:16;98866.25;;;2.62;70.55
73106;BME280;61559;50.476;15.588;2024-01-27T07:53:48;98866.11;;;2.63;70.78
73106;BME280;61559;50.476;15.588;2024-01-27T07:56:19;98866.48;;;2.61;70.69
73106;BME280;61559;50.476;15.588;2024-01-27T07:58:48;98868.16;;;2.61;70.81
73106;BME280;61559;50.476;15.588;2024-01-27T08:01:20;98875.92;;;2.59;70.91
73106;BME280;61559;50.476;15.588;2024-01-27T08:03:49;98875.41;;;2.60;71.29
73106;BME280;61559;50.476;15.588;2024-01-27T08:06:28;98872.83;;;2.60;71.42
73106;BME280;61559;50.476;15.588;2024-01-27T08:09:00;98879.71;;;2.62;71.59
73106;BME280;61559;50.476;15.588;2024-01-27T08:11:31;98877.20;;;2.63;71.55
73106;BME280;61559;50.476;15.588;2024-01-27T08:14:03;98878.26;;;2.62;71.58
73106;BME280;61559;50.476;15.588;2024-01-27T08:16:34;98868.70;;;2.63;71.97
73106;BME280;61559;50.476;15.588;2024-01-27T08:19:06;98883.87;;;2.61;72.01
73106;BME280;61559;50.476;15.588;2024-01-27T08:21:37;98871.82;;;2.61;72.36
73106;BME280;61559;50.476;15.588;2024-01-27T08:24:08;98870.17;;;2.60;72.86
73106;BME280;61559;50.476;15.588;2024-01-27T08:26:40;98874.11;;;2.61;72.83
73106;BME280;61559;50.476;15.588;2024-01-27T08:29:12;98872.24;;;2.62;72.98
73106;BME280;61559;50.476;15.588;2024-01-27T08:31:43;98875.92;;;2.63;73.34
73106;BME280;61559;50.476;15.588;2024-01-27T08:34:14;98886.13;;;2.64;73.41
73106;BME280;61559;50.476;15.588;2024-01-27T08:36:46;98882.45;;;2.67;73.33
73106;BME280;61559;50.476;15.588;2024-01-27T08:39:17;98874.81;;;2.68;73.33
73106;BME280;61559;50.476;15.588;2024-01-27T08:41:49;98881.71;;;2.70;73.38
73106;BME280;61559;50.476;15.588;2024-01-27T08:44:20;98879.04;;;2.70;73.26
73106;BME280;61559;50.476;15.588;2024-01-27T08:46:50;98884.59;;;2.73;73.26
73106;BME280;61559;50.476;15.588;2024-01-27T08:49:21;98880.89;;;2.74;73.04
73106;BME280;61559;50.476;15.588;2024-01-27T08:51:52;98885.66;;;2.77;73.05
73106;BME280;61559;50.476;15.588;2024-01-27T08:54:25;98900.34;;;2.81;72.79
73106;BME280;61559;50.476;15.588;2024-01-27T08:56:56;98900.31;;;2.85;72.53
73106;BME280;61559;50.476;15.588;2024-01-27T08:59:28;98904.73;;;2.88;72.38
73106;BME280;61559;50.476;15.588;2024-01-27T09:01:59;98903.92;;;2.91;72.39
73106;BME280;61559;50.476;15.588;2024-01-27T09:04:30;98909.61;;;2.93;72.19
73106;BME280;61559;50.476;15.588;2024-01-27T09:07:03;98907.05;;;2.94;72.25
73106;BME280;61559;50.476;15.588;2024-01-27T09:09:34;98910.67;;;2.95;72.39
73106;BME280;61559;50.476;15.588;2024-01-27T09:12:08;98916.36;;;2.97;72.47
73106;BME280;61559;50.476;15.588;2024-01-27T09:14:39;98919.04;;;2.96;72.19
73106;BME280;61559;50.476;15.588;2024-01-27T09:17:10;98914.74;;;2.95;72.02
73106;BME280;61559;50.476;15.588;2024-01-27T09:19:42;98923.84;;;2.94;72.06
73106;BME280;61559;50.476;15.588;2024-01-27T09:22:14;98926.09;;;2.95;72.17
73106;BME280;61559;50.476;15.588;2024-01-27T09:24:45;98931.80;;;2.95;72.10
73106;BME280;61559;50.476;15.588;2024-01-27T09:27:16;98933.67;;;2.97;72.55
73106;BME280;61559;50.476;15.588;2024-01-27T09:29:46;98935.17;;;2.98;72.73
73106;BME280;61559;50.476;15.588;2024-01-27T09:32:17;98941.43;;;2.96;72.60
73106;BME280;61559;50.476;15.588;2024-01-27T09:34:48;98942.19;;;2.98;72.68
73106;BME280;61559;50.476;15.588;2024-01-27T09:37:20;98944.06;;;3.00;72.83
73106;BME280;61559;50.476;15.588;2024-01-27T09:39:57;98939.55;;;3.01;72.84
73106;BME280;61559;50.476;15.588;2024-01-27T09:42:34;98949.42;;;3.03;72.84
73106;BME280;61559;50.476;15.588;2024-01-27T09:45:10;98955.98;;;3.07;72.88
73106;BME280;61559;50.476;15.588;2024-01-27T09:47:43;98954.14;;;3.11;72.95
73106;BME280;61559;50.476;15.588;2024-01-27T09:50:18;98957.15;;;3.12;72.13
73106;BME280;61559;50.476;15.588;2024-01-27T09:52:50;98960.80;;;3.13;71.83
73106;BME280;61559;50.476;15.588;2024-01-27T09:55:22;98967.71;;;3.17;72.21
73106;BME280;61559;50.476;15.588;2024-01-27T09:57:53;98965.89;;;3.20;72.04
73106;BME280;61559;50.476;15.588;2024-01-27T10:00:25;98966.55;;;3.23;71.80
73106;BME280;61559;50.476;15.588;2024-01-27T10:02:57;98963.52;;;3.26;71.81
73106;BME280;61559;50.476;15.588;2024-01-27T10:05:30;98965.05;;;3.28;71.82
73106;BME280;61559;50.476;15.588;2024-01-27T10:08:02;98963.13;;;3.29;71.35
73106;BME280;61559;50.476;15.588;2024-01-27T10:10:36;98960.91;;;3.30;71.53
73106;BME280;61559;50.476;15.588;2024-01-27T10:13:08;98944.67;;;3.31;71.70
73106;BME280;61559;50.476;15.588;2024-01-27T10:15:41;98960.42;;;3.31;71.31
73106;BME280;61559;50.476;15.588;2024-01-27T10:18:12;98964.69;;;3.34;71.62
73106;BME280;61559;50.476;15.588;2024-01-27T10:20:46;98951.95;;;3.36;71.72
73106;BME280;61559;50.476;15.588;2024-01-27T10:23:16;98951.48;;;3.38;71.31
73106;BME280;61559;50.476;15.588;2024-01-27T10:25:47;98960.70;;;3.40;71.73
73106;BME280;61559;50.476;15.588;2024-01-27T10:28:18;98952.66;;;3.45;71.83
73106;BME280;61559;50.476;15.588;2024-01-27T10:30:49;98952.77;;;3.50;71.33
73106;BME280;61559;50.476;15.588;2024-01-27T10:33:21;98954.19;;;3.52;71.16
73106;BME280;61559;50.476;15.588;2024-01-27T10:35:58;98957.45;;;3.51;70.94
73106;BME280;61559;50.476;15.588;2024-01-27T10:38:36;98952.59;;;3.51;70.95
73106;BME280;61559;50.476;15.588;2024-01-27T10:41:10;98958.86;;;3.51;70.84
73106;BME280;61559;50.476;15.588;2024-01-27T10:43:41;98955.84;;;3.53;70.93
73106;BME280;61559;50.476;15.588;2024-01-27T10:46:14;98962.29;;;3.54;70.79
73106;BME280;61559;50.476;15.588;2024-01-27T10:48:49;98956.38;;;3.56;70.88
73106;BME280;61559;50.476;15.588;2024-01-27T10:51:26;98956.70;;;3.59;71.17
73106;BME280;61559;50.476;15.588;2024-01-27T10:54:02;98958.18;;;3.60;70.76
73106;BME280;61559;50.476;15.588;2024-01-27T10:56:38;98954.04;;;3.59;70.52
73106;BME280;61559;50.476;15.588;2024-01-27T10:59:13;98953.82;;;3.58;71.10
73106;BME280;61559;50.476;15.588;2024-01-27T11:01:46;98948.75;;;3.57;70.85
73106;BME280;61559;50.476;15.588;2024-01-27T11:04:17;98953.16;;;3.56;71.13
73106;BME280;61559;50.476;15.588;2024-01-27T11:06:50;98957.27;;;3.58;71.44
73106;BME280;61559;50.476;15.588;2024-01-27T11:09:22;98955.11;;;3.59;71.58
73106;BME280;61559;50.476;15.588;2024-01-27T11:11:55;98955.40;;;3.56;71.62
73106;BME280;61559;50.476;15.588;2024-01-27T11:14:26;98958.69;;;3.57;71.90
73106;BME280;61559;50.476;15.588;2024-01-27T11:16:58;98952.77;;;3.59;72.12
73106;BME280;61559;50.476;15.588;2024-01-27T11:19:30;98955.70;;;3.56;72.08
73106;BME280;61559;50.476;15.588;2024-01-27T11:22:03;98955.36;;;3.54;72.19
73106;BME280;61559;50.476;15.588;2024-01-27T11:24:34;98953.04;;;3.50;72.48
73106;BME280;61559;50.476;15.588;2024-01-27T11:27:07;98961.42;;;3.49;72.52
73106;BME280;61559;50.476;15.588;2024-01-27T11:29:48;98948.41;;;3.45;72.45
73106;BME280;61559;50.476;15.588;2024-01-27T11:32:19;98954.61;;;3.43;72.97
73106;BME280;61559;50.476;15.588;2024-01-27T11:34:52;98944.22;;;3.41;72.73
73106;BME280;61559;50.476;15.588;2024-01-27T11:37:24;98947.76;;;3.45;72.96
73106;BME280;61559;50.476;15.588;2024-01-27T11:40:05;98939.29;;;3.50;72.99
73106;BME280;61559;50.476;15.588;2024-01-27T11:42:37;98942.78;;;3.54;72.94
73106;BME280;61559;50.476;15.588;2024-01-27T11:45:09;98948.88;;;3.59;73.09
73106;BME280;61559;50.476;15.588;2024-01-27T11:47:41;98953.50;;;3.63;72.82
73106;BME280;61559;50.476;15.588;2024-01-27T11:50:14;98954.60;;;3.65;72.66
73106;BME280;61559;50.476;15.588;2024-01-27T11:52:48;98963.12;;;3.65;72.60
73106;BME280;61559;50.476;15.588;2024-01-27T11:55:19;98961.47;;;3.67;73.03
73106;BME280;61559;50.476;15.588;2024-01-27T11:57:49;98967.30;;;3.67;73.02
73106;BME280;61559;50.476;15.588;2024-01-27T12:00:21;98967.37;;;3.66;73.09
73106;BME280;61559;50.476;15.588;2024-01-27T12:02:53;98971.31;;;3.64;73.32
73106;BME280;61559;50.476;15.588;2024-01-27T12:05:24;98975.36;;;3.63;73.35
73106;BME280;61559;50.476;15.588;2024-01-27T12:07:56;98984.32;;;3.62;73.51
73106;BME280;61559;50.476;15.588;2024-01-27T12:10:28;98985.93;;;3.62;73.54
73106;BME280;61559;50.476;15.588;2024-01-27T12:12:57;98991.88;;;3.61;73.86
73106;BME280;61559;50.476;15.588;2024-01-27T12:15:28;98987.78;;;3.57;73.96
73106;BME280;61559;50.476;15.588;2024-01-27T12:17:59;98990.66;;;3.56;74.10
73106;BME280;61559;50.476;15.588;2024-01-27T12:20:31;98991.53;;;3.56;74.28
73106;BME280;61559;50.476;15.588;2024-01-27T12:23:06;98989.41;;;3.55;74.39
73106;BME280;61559;50.476;15.588;2024-01-27T12:25:37;98991.02;;;3.54;74.33
73106;BME280;61559;50.476;15.588;2024-01-27T12:28:10;99001.54;;;3.53;74.20
73106;BME280;61559;50.476;15.588;2024-01-27T12:30:44;99003.83;;;3.52;73.66
73106;BME280;61559;50.476;15.588;2024-01-27T12:33:15;98998.95;;;3.53;73.83
73106;BME280;61559;50.476;15.588;2024-01-27T12:35:49;98999.80;;;3.54;73.69
73106;BME280;61559;50.476;15.588;2024-01-27T12:38:21;99011.59;;;3.56;73.42
73106;BME280;61559;50.476;15.588;2024-01-27T12:40:52;99003.33;;;3.58;73.08
73106;BME280;61559;50.476;15.588;2024-01-27T12:43:23;99005.96;;;3.59;73.04
73106;BME280;61559;50.476;15.588;2024-01-27T12:45:55;99001.95;;;3.60;72.99
73106;BME280;61559;50.476;15.588;2024-01-27T12:48:26;99008.40;;;3.64;73.03
73106;BME280;61559;50.476;15.588;2024-01-27T12:50:57;99004.49;;;3.67;72.71
73106;BME280;61559;50.476;15.588;2024-01-27T12:53:30;99001.01;;;3.69;72.60
73106;BME280;61559;50.476;15.588;2024-01-27T12:56:03;99007.98;;;3.71;72.30
73106;BME280;61559;50.476;15.588;2024-01-27T12:58:35;99002.48;;;3.73;72.20
73106;BME280;61559;50.476;15.588;2024-01-27T13:01:07;99000.21;;;3.75;71.77
73106;BME280;61559;50.476;15.588;2024-01-27T13:03:39;98999.67;;;3.76;71.66
73106;BME280;61559;50.476;15.588;2024-01-27T13:06:14;99007.91;;;3.78;71.60
73106;BME280;61559;50.476;15.588;2024-01-27T13:08:46;99017.95;;;3.77;71.21
73106;BME280;61559;50.476;15.588;2024-01-27T13:11:15;99023.20;;;3.80;71.30
73106;BME280;61559;50.476;15.588;2024-01-27T13:13:46;99015.73;;;3.81;71.22
73106;BME280;61559;50.476;15.588;2024-01-27T13:16:20;99027.53;;;3.83;71.19
73106;BME280;61559;50.476;15.588;2024-01-27T13:18:51;99028.39;;;3.85;71.00
73106;BME280;61559;50.476;15.588;2024-01-27T13:21:22;99030.94;;;3.87;71.02
73106;BME280;61559;50.476;15.588;2024-01-27T13:23:52;99038.95;;;3.93;71.12